createdAt,value
2022-09-23T00:01:03.721Z,9.00
2022-09-23T00:03:31.866Z,9.43
2022-09-23T00:06:04.266Z,9.38
2022-09-23T00:08:31.195Z,9.23
2022-09-23T00:10:57.913Z,9.32
2022-09-23T00:13:25.464Z,8.98
2022-09-23T00:15:52.180Z,8.60
2022-09-23T00:18:20.554Z,8.88
2022-09-23T00:20:47.428Z,8.85
2022-09-23T00:23:13.870Z,8.77
2022-09-23T00:25:40.414Z,10.07
2022-09-23T00:28:07.042Z,9.40
2022-09-23T00:30:34.051Z,8.88
2022-09-23T00:33:00.931Z,9.38
2022-09-23T00:35:27.709Z,9.15
2022-09-23T00:37:54.154Z,9.60
2022-09-23T00:40:20.856Z,8.70
2022-09-23T00:42:52.087Z,9.48
2022-09-23T00:45:19.163Z,9.30
2022-09-23T00:47:55.217Z,8.95
2022-09-23T00:50:30.257Z,8.10
2022-09-23T00:52:59.374Z,8.38
2022-09-23T00:55:31.791Z,8.43
2022-09-23T00:58:01.368Z,8.32
2022-09-23T01:00:27.899Z,8.43
2022-09-23T01:02:55.410Z,8.52
2022-09-23T01:05:22.109Z,9.05
2022-09-23T01:07:49.977Z,9.55
2022-09-23T01:10:18.316Z,8.98
2022-09-23T01:13:12.283Z,8.10
2022-09-23T01:15:48.453Z,8.02
2022-09-23T01:18:29.737Z,8.45
2022-09-23T01:21:06.236Z,7.75
2022-09-23T01:23:54.185Z,8.43
2022-09-23T01:26:48.658Z,8.68
2022-09-23T01:29:46.048Z,8.45
2022-09-23T01:32:41.030Z,8.25
2022-09-23T01:35:26.649Z,7.95
2022-09-23T01:38:06.449Z,8.45
2022-09-23T01:41:12.510Z,8.80
2022-09-23T01:44:02.782Z,8.48
2022-09-23T01:46:54.501Z,8.00
2022-09-23T01:49:43.727Z,8.93
2022-09-23T01:52:18.608Z,8.80
2022-09-23T01:55:20.945Z,8.40
2022-09-23T01:57:55.457Z,9.75
2022-09-23T02:00:24.042Z,9.10
2022-09-23T02:02:59.390Z,8.55
2022-09-23T02:05:39.930Z,8.90
2022-09-23T02:08:16.862Z,9.02
2022-09-23T02:10:52.070Z,8.82
2022-09-23T02:13:34.376Z,8.60
2022-09-23T02:16:08.598Z,9.07
2022-09-23T02:18:46.183Z,9.10
2022-09-23T02:21:15.672Z,9.45
2022-09-23T02:23:52.950Z,9.90
2022-09-23T02:26:31.770Z,10.40
2022-09-23T02:29:30.337Z,9.88
2022-09-23T02:32:25.059Z,9.65
2022-09-23T02:35:18.043Z,9.18
2022-09-23T02:38:02.760Z,9.50
2022-09-23T02:40:51.057Z,9.80
2022-09-23T02:43:32.128Z,9.95
2022-09-23T02:45:58.828Z,9.73
2022-09-23T02:48:32.110Z,9.20
2022-09-23T02:51:02.446Z,9.30
2022-09-23T02:53:30.457Z,9.25
2022-09-23T02:55:56.904Z,9.07
2022-09-23T02:58:23.475Z,8.73
2022-09-23T03:01:19.445Z,8.43
2022-09-23T03:04:05.400Z,8.60
2022-09-23T03:07:03.783Z,8.40
2022-09-23T03:09:38.362Z,9.68
2022-09-23T03:12:32.341Z,9.30
2022-09-23T03:15:09.665Z,9.77
2022-09-23T03:18:12.946Z,9.05
2022-09-23T03:20:50.308Z,9.43
2022-09-23T03:23:25.369Z,9.23
2022-09-23T03:25:54.994Z,9.98
2022-09-23T03:28:23.200Z,9.80
2022-09-23T03:30:52.113Z,9.65
2022-09-23T03:33:26.752Z,9.43
2022-09-23T03:36:18.186Z,9.20
2022-09-23T03:38:48.594Z,9.05
2022-09-23T03:41:23.178Z,9.32
2022-09-23T03:43:49.841Z,8.52
2022-09-23T03:46:17.663Z,9.57
2022-09-23T03:48:45.506Z,9.95
2022-09-23T03:51:22.756Z,10.70
2022-09-23T03:53:52.706Z,10.02
2022-09-23T03:56:19.160Z,9.77
2022-09-23T03:58:46.608Z,10.98
2022-09-23T04:01:14.749Z,10.95
2022-09-23T04:03:41.807Z,10.70
2022-09-23T04:06:08.665Z,10.52
2022-09-23T04:08:35.245Z,10.93
2022-09-23T04:11:03.638Z,10.90
2022-09-23T04:13:31.722Z,11.73
2022-09-23T04:15:58.417Z,9.65
2022-09-23T04:18:25.160Z,10.38
2022-09-23T04:20:51.701Z,10.73
2022-09-23T04:23:18.185Z,10.38
2022-09-23T04:25:49.106Z,9.77
2022-09-23T04:28:16.034Z,10.07
2022-09-23T04:30:43.700Z,9.95
2022-09-23T04:33:11.248Z,10.15
2022-09-23T04:35:43.582Z,10.68
2022-09-23T04:38:13.298Z,10.70
2022-09-23T04:40:40.018Z,10.27
2022-09-23T04:43:10.536Z,11.30
2022-09-23T04:45:39.386Z,10.77
2022-09-23T04:48:05.834Z,10.50
2022-09-23T04:50:33.945Z,11.05
2022-09-23T04:53:00.599Z,10.57
2022-09-23T04:55:27.176Z,10.55
2022-09-23T04:57:53.742Z,10.73
2022-09-23T05:00:21.163Z,10.65
2022-09-23T05:02:49.690Z,9.80
2022-09-23T05:05:22.301Z,9.63
2022-09-23T05:07:49.159Z,10.07
2022-09-23T05:10:16.634Z,11.10
2022-09-23T05:12:43.754Z,10.85
2022-09-23T05:15:10.235Z,9.55
2022-09-23T05:17:37.403Z,10.88
2022-09-23T05:20:05.345Z,10.48
2022-09-23T05:22:32.025Z,10.85
2022-09-23T05:25:00.291Z,11.23
2022-09-23T05:27:27.245Z,10.82
2022-09-23T05:29:53.866Z,11.30
2022-09-23T05:32:21.341Z,11.23
2022-09-23T05:34:47.867Z,10.88
2022-09-23T05:37:14.318Z,11.50
2022-09-23T05:39:40.790Z,10.40
2022-09-23T05:42:07.362Z,10.73
2022-09-23T05:44:33.905Z,11.02
2022-09-23T05:47:00.452Z,11.20
2022-09-23T05:49:48.373Z,11.55
2022-09-23T05:52:13.538Z,10.20
2022-09-23T05:54:40.843Z,11.65
2022-09-23T05:57:07.339Z,10.70
2022-09-23T05:59:33.876Z,12.27
2022-09-23T06:02:01.864Z,11.30
2022-09-23T06:04:29.990Z,11.93
2022-09-23T06:07:00.268Z,11.38
2022-09-23T06:09:34.148Z,11.27
2022-09-23T06:12:03.018Z,11.30
2022-09-23T06:14:29.569Z,11.68
2022-09-23T06:16:56.122Z,10.95
2022-09-23T06:19:22.565Z,11.88
2022-09-23T06:21:49.606Z,11.63
2022-09-23T06:24:20.562Z,11.35
2022-09-23T06:26:49.050Z,11.65
2022-09-23T06:29:15.494Z,10.38
2022-09-23T06:31:43.535Z,11.07
2022-09-23T06:34:16.412Z,11.95
2022-09-23T06:36:45.752Z,12.45
2022-09-23T06:39:13.998Z,11.18
2022-09-23T06:41:40.540Z,12.27
2022-09-23T06:44:07.219Z,12.02
2022-09-23T06:46:34.036Z,12.20
2022-09-23T06:49:02.058Z,11.88
2022-09-23T06:51:28.545Z,11.35
2022-09-23T06:53:55.645Z,11.45
2022-09-23T06:56:23.016Z,12.68
2022-09-23T06:58:51.685Z,12.40
2022-09-23T07:01:19.783Z,11.80
2022-09-23T07:03:48.181Z,12.02
2022-09-23T07:06:15.119Z,11.27
2022-09-23T07:08:47.220Z,13.13
2022-09-23T07:11:15.439Z,13.18
2022-09-23T07:13:42.655Z,13.20
2022-09-23T07:16:11.126Z,12.63
2022-09-23T07:18:38.208Z,12.00
2022-09-23T07:21:15.353Z,12.95
2022-09-23T07:23:43.320Z,13.95
2022-09-23T07:26:10.052Z,13.48
2022-09-23T07:28:37.166Z,13.35
2022-09-23T07:31:09.505Z,13.50
2022-09-23T07:33:37.865Z,13.65
2022-09-23T07:36:10.085Z,13.10
2022-09-23T07:38:41.502Z,13.32
2022-09-23T07:41:13.018Z,14.30
2022-09-23T07:43:39.727Z,14.18
2022-09-23T07:46:17.831Z,13.75
2022-09-23T07:48:45.992Z,13.10
2022-09-23T07:51:18.524Z,14.15
2022-09-23T07:53:50.561Z,14.82
2022-09-23T07:56:21.976Z,14.05
2022-09-23T07:58:59.939Z,14.63
2022-09-23T08:01:29.466Z,14.75
2022-09-23T08:04:03.249Z,14.55
2022-09-23T08:06:30.125Z,14.10
2022-09-23T08:09:00.897Z,14.90
2022-09-23T08:11:27.989Z,15.25
2022-09-23T08:13:54.979Z,14.48
2022-09-23T08:16:22.207Z,14.93
2022-09-23T08:18:49.416Z,15.40
2022-09-23T08:21:22.839Z,15.25
2022-09-23T08:23:49.992Z,14.70
2022-09-23T08:26:21.473Z,15.73
2022-09-23T08:28:48.989Z,14.95
2022-09-23T08:31:15.581Z,14.73
2022-09-23T08:33:42.173Z,15.38
2022-09-23T08:36:08.933Z,15.13
2022-09-23T08:38:35.758Z,14.98
2022-09-23T08:41:36.343Z,14.60
2022-09-23T08:44:27.003Z,14.55
2022-09-23T08:47:18.876Z,14.70
2022-09-23T08:49:57.499Z,14.25
2022-09-23T08:52:49.166Z,14.23
2022-09-23T08:55:16.314Z,15.25
2022-09-23T08:58:23.934Z,14.60
2022-09-23T09:00:54.347Z,15.48
2022-09-23T09:03:31.417Z,14.63
2022-09-23T09:05:58.917Z,14.98
2022-09-23T09:08:32.595Z,15.05
2022-09-23T09:11:00.014Z,14.43
2022-09-23T09:13:43.921Z,14.45
2022-09-23T09:17:01.171Z,14.27
2022-09-23T09:19:47.397Z,15.07
2022-09-23T09:22:19.865Z,14.38
2022-09-23T09:24:49.178Z,12.40
2022-09-23T09:27:15.645Z,12.82
2022-09-23T09:29:50.002Z,14.60
2022-09-23T09:32:29.433Z,14.77
2022-09-23T09:35:05.593Z,13.52
2022-09-23T09:37:44.528Z,14.95
2022-09-23T09:40:20.197Z,14.85
2022-09-23T09:42:49.446Z,13.10
2022-09-23T09:45:59.084Z,13.60
2022-09-23T09:48:41.733Z,13.00
2022-09-23T09:51:21.498Z,14.38
2022-09-23T09:53:52.045Z,13.40
2022-09-23T10:01:23.599Z,10.23
2022-09-23T10:04:03.672Z,13.10
2022-09-23T10:06:35.891Z,11.80
2022-09-23T10:09:02.439Z,11.43
2022-09-23T10:11:30.070Z,11.15
2022-09-23T10:14:00.264Z,9.75
2022-09-23T10:16:27.766Z,9.27
2022-09-23T10:18:57.028Z,9.85
2022-09-23T10:21:27.980Z,9.73
2022-09-23T10:24:01.584Z,10.23
2022-09-23T10:26:32.995Z,9.55
2022-09-23T10:29:05.055Z,9.65
2022-09-23T10:31:33.583Z,9.32
2022-09-23T10:34:02.070Z,8.70
2022-09-23T10:36:31.390Z,9.85
2022-09-23T10:39:20.019Z,9.20
2022-09-23T10:42:17.972Z,8.27
2022-09-23T10:45:22.061Z,7.93
2022-09-23T10:47:58.907Z,8.77
2022-09-23T10:50:42.171Z,8.10
2022-09-23T10:53:42.960Z,8.05
2022-09-23T10:59:06.636Z,8.30
2022-09-23T11:01:49.103Z,8.93
2022-09-23T11:04:40.740Z,9.13
2022-09-23T11:07:10.555Z,9.40
2022-09-23T11:10:02.561Z,9.70
2022-09-23T11:12:56.613Z,9.18
2022-09-23T11:15:39.431Z,10.00
2022-09-23T11:18:31.546Z,9.95
2022-09-23T11:21:07.177Z,9.63
2022-09-23T11:24:04.968Z,9.27
2022-09-23T11:27:10.583Z,9.10
2022-09-23T11:30:07.458Z,9.25
2022-09-23T11:32:55.568Z,8.00
2022-09-23T11:35:35.760Z,9.10
2022-09-23T11:38:11.180Z,8.85
2022-09-23T11:40:45.638Z,9.00
2022-09-23T11:43:23.492Z,9.20
2022-09-23T11:46:25.673Z,9.68
2022-09-23T11:49:05.038Z,9.68
2022-09-23T11:51:43.777Z,9.73
2022-09-23T11:54:44.240Z,10.05
2022-09-23T11:57:20.931Z,9.85
2022-09-23T11:59:55.038Z,9.68
2022-09-23T12:03:01.678Z,9.90
2022-09-23T12:05:39.789Z,10.20
2022-09-23T12:08:06.505Z,10.13
2022-09-23T12:10:55.994Z,9.88
2022-09-23T12:13:56.514Z,10.00
2022-09-23T12:16:28.393Z,10.20
2022-09-23T12:19:01.167Z,9.60
2022-09-23T12:22:21.590Z,10.50
2022-09-23T12:24:57.968Z,8.75
2022-09-23T12:27:37.972Z,9.43
2022-09-23T12:30:26.952Z,8.80
2022-09-23T12:33:07.762Z,8.63
2022-09-23T12:35:41.510Z,8.70
2022-09-23T12:38:20.249Z,8.68
2022-09-23T12:40:47.804Z,6.15
2022-09-23T12:43:31.427Z,9.15
2022-09-23T12:46:23.469Z,8.88
2022-09-23T12:49:02.078Z,8.32
2022-09-23T12:51:35.092Z,6.93
2022-09-23T12:54:04.514Z,8.27
2022-09-23T12:56:34.033Z,9.23
2022-09-23T12:59:15.965Z,8.10
2022-09-23T13:01:43.491Z,9.10
2022-09-23T13:04:51.030Z,8.30
2022-09-23T13:07:23.473Z,8.00
2022-09-23T13:09:52.892Z,8.70
2022-09-23T13:12:32.150Z,8.05
2022-09-23T13:15:03.647Z,7.60
2022-09-23T13:17:32.474Z,5.90
2022-09-23T13:20:05.256Z,5.40
2022-09-23T13:22:51.991Z,5.25
2022-09-23T13:25:24.382Z,4.60
2022-09-23T13:27:55.335Z,4.82
2022-09-23T13:30:26.626Z,4.97
2022-09-23T13:33:18.065Z,4.95
2022-09-23T13:35:53.485Z,5.28
2022-09-23T13:38:26.097Z,4.85
2022-09-23T13:40:55.998Z,5.68
2022-09-23T13:43:27.578Z,4.57
2022-09-23T13:45:55.201Z,5.20
2022-09-23T13:48:25.575Z,4.93
2022-09-23T13:50:56.073Z,4.97
2022-09-23T13:56:01.958Z,4.85
2022-09-23T13:58:30.737Z,5.47
2022-09-23T14:00:58.103Z,5.22
2022-09-23T14:03:29.374Z,5.10
2022-09-23T14:06:12.909Z,4.72
2022-09-23T14:11:08.019Z,4.63
2022-09-23T14:13:42.001Z,4.72
2022-09-23T14:16:12.615Z,4.40
2022-09-23T14:18:42.909Z,4.65
2022-09-23T14:21:35.333Z,4.50
2022-09-23T14:24:30.115Z,4.40
2022-09-23T14:27:00.784Z,4.18
2022-09-23T14:29:31.712Z,4.53
2022-09-23T14:32:07.624Z,4.60
2022-09-23T14:34:46.657Z,4.38
2022-09-23T14:37:47.957Z,4.90
2022-09-23T14:40:20.734Z,4.38
2022-09-23T14:42:56.672Z,4.55
2022-09-23T14:45:27.200Z,8.40
2022-09-23T14:50:40.554Z,5.78
2022-09-23T14:53:40.651Z,6.30
2022-09-23T14:56:07.064Z,5.57
2022-09-23T14:58:52.821Z,6.30
2022-09-23T15:01:30.547Z,5.63
2022-09-23T15:04:09.215Z,5.80
2022-09-23T15:06:38.271Z,6.22
2022-09-23T15:09:06.823Z,6.20
2022-09-23T15:11:36.164Z,6.28
2022-09-23T15:14:26.338Z,6.50
2022-09-23T15:16:51.407Z,6.80
2022-09-23T15:19:20.791Z,7.32
2022-09-23T15:21:51.463Z,6.60
2022-09-23T15:24:41.114Z,5.97
2022-09-23T15:27:34.780Z,6.13
2022-09-23T15:30:17.448Z,6.25
2022-09-23T15:32:47.308Z,5.80
2022-09-23T15:35:21.180Z,6.00
2022-09-23T15:37:50.031Z,6.07
2022-09-23T15:40:29.099Z,6.47
2022-09-23T15:43:07.462Z,7.40
2022-09-23T15:45:36.995Z,7.10
2022-09-23T15:48:11.129Z,7.37
2022-09-23T15:50:38.297Z,7.72
2022-09-23T15:53:06.422Z,7.18
2022-09-23T15:55:33.649Z,7.38
2022-09-23T15:58:00.705Z,7.60
2022-09-23T16:00:27.411Z,7.88
2022-09-23T16:02:54.090Z,11.27
2022-09-23T16:05:23.361Z,8.60
2022-09-23T16:07:52.294Z,7.35
2022-09-23T16:10:20.951Z,8.45
2022-09-23T16:12:48.485Z,8.27
2022-09-23T16:15:18.965Z,7.72
2022-09-23T16:20:15.340Z,8.65
2022-09-23T16:22:41.835Z,8.40
2022-09-23T16:25:11.978Z,7.63
2022-09-23T16:27:40.357Z,6.90
2022-09-23T16:30:07.973Z,7.93
2022-09-23T16:32:34.551Z,9.10
2022-09-23T16:35:01.093Z,8.85
2022-09-23T16:37:27.692Z,10.48
2022-09-23T16:39:54.861Z,10.27
2022-09-23T16:42:21.857Z,11.52
2022-09-23T16:44:48.354Z,11.45
2022-09-23T16:47:16.036Z,11.50
2022-09-23T16:49:42.571Z,11.43
2022-09-23T16:52:13.950Z,10.68
2022-09-23T16:54:42.242Z,9.90
2022-09-23T16:57:09.644Z,10.57
2022-09-23T16:59:54.454Z,10.15
2022-09-23T17:02:39.693Z,9.95
2022-09-23T17:05:06.512Z,10.23
2022-09-23T17:07:33.044Z,9.93
2022-09-23T17:09:59.848Z,11.57
2022-09-23T17:12:32.301Z,11.27
2022-09-23T17:14:59.196Z,11.70
2022-09-23T17:17:25.926Z,11.00
2022-09-23T17:19:52.389Z,14.07
2022-09-23T17:22:22.215Z,13.68
2022-09-23T17:24:48.801Z,15.65
2022-09-23T17:27:17.114Z,12.32
2022-09-23T17:29:44.473Z,15.50
2022-09-23T17:32:11.291Z,13.20
2022-09-23T17:34:37.861Z,12.30
2022-09-23T17:37:04.415Z,13.63
2022-09-23T17:39:31.672Z,13.13
2022-09-23T17:41:58.565Z,13.60
2022-09-23T17:44:26.791Z,14.52
2022-09-23T17:46:53.417Z,14.48
2022-09-23T17:49:24.426Z,15.75
2022-09-23T17:51:50.986Z,16.02
2022-09-23T17:54:17.479Z,14.50
2022-09-23T17:56:43.995Z,14.23
2022-09-23T17:59:14.977Z,14.05
2022-09-23T18:01:41.711Z,15.25
2022-09-23T18:04:08.323Z,16.35
2022-09-23T18:06:37.017Z,15.88
2022-09-23T18:09:05.578Z,15.98
2022-09-23T18:11:39.399Z,15.57
2022-09-23T18:14:26.196Z,16.55
2022-09-23T18:16:53.698Z,15.30
2022-09-23T18:19:22.505Z,16.08
2022-09-23T18:21:51.416Z,14.05
2022-09-23T18:24:31.922Z,17.48
2022-09-23T18:27:01.860Z,16.27
2022-09-23T18:29:28.581Z,16.35
2022-09-23T18:31:55.476Z,18.08
2022-09-23T18:34:22.608Z,18.67
2022-09-23T18:36:49.121Z,19.17
2022-09-23T18:39:15.662Z,18.05
2022-09-23T18:41:42.438Z,19.95
2022-09-23T18:44:09.617Z,18.10
2022-09-23T18:46:36.368Z,17.25
2022-09-23T18:49:22.174Z,17.70
2022-09-23T18:51:51.806Z,19.25
2022-09-23T18:54:19.648Z,18.43
2022-09-23T18:56:46.965Z,17.58
2022-09-23T18:59:19.591Z,17.30
2022-09-23T19:01:48.673Z,16.80
2022-09-23T19:04:20.133Z,18.75
2022-09-23T19:06:46.880Z,17.73
2022-09-23T19:09:15.345Z,19.55
2022-09-23T19:11:42.894Z,19.67
2022-09-23T19:14:11.544Z,18.15
2022-09-23T19:16:39.688Z,19.30
2022-09-23T19:19:06.744Z,19.35
2022-09-23T19:21:33.852Z,17.80
2022-09-23T19:24:05.847Z,18.20
2022-09-23T19:26:40.639Z,17.65
2022-09-23T19:29:08.792Z,20.60
2022-09-23T19:31:41.789Z,17.23
2022-09-23T19:34:15.965Z,19.92
2022-09-23T19:36:45.881Z,18.77
2022-09-23T19:39:17.334Z,18.13
2022-09-23T19:41:44.742Z,18.80
2022-09-23T19:44:11.808Z,20.98
2022-09-23T19:46:40.928Z,18.88
2022-09-23T19:49:08.143Z,19.85
2022-09-23T19:51:35.361Z,19.55
2022-09-23T19:54:03.650Z,20.23
2022-09-23T19:56:31.878Z,18.38
2022-09-23T19:58:59.263Z,19.63
2022-09-23T20:01:27.425Z,19.35
2022-09-23T20:03:53.906Z,19.73
2022-09-23T20:06:21.213Z,19.17
2022-09-23T20:08:49.553Z,18.63
2022-09-23T20:11:26.155Z,21.05
2022-09-23T20:14:04.500Z,18.92
2022-09-23T20:16:33.976Z,19.35
2022-09-23T20:19:01.286Z,20.08
2022-09-23T20:21:29.366Z,19.17
2022-09-23T20:23:56.833Z,19.13
2022-09-23T20:26:41.641Z,17.85
2022-09-23T20:29:09.087Z,18.83
2022-09-23T20:31:35.840Z,16.85
2022-09-23T20:34:05.810Z,17.42
2022-09-23T20:36:33.963Z,16.02
2022-09-23T20:39:03.118Z,17.42
2022-09-23T20:41:31.640Z,18.10
2022-09-23T20:44:02.701Z,16.30
2022-09-23T20:46:30.350Z,17.10
2022-09-23T20:48:57.087Z,16.38
2022-09-23T20:51:25.081Z,17.27
2022-09-23T20:53:52.897Z,16.83
2022-09-23T20:56:23.060Z,17.40
2022-09-23T20:58:50.795Z,17.90
2022-09-23T21:01:17.589Z,16.98
2022-09-23T21:03:46.416Z,16.90
2022-09-23T21:06:14.885Z,16.25
2022-09-23T21:08:42.262Z,15.63
2022-09-23T21:11:15.031Z,17.48
2022-09-23T21:13:49.089Z,16.85
2022-09-23T21:16:17.181Z,16.20
2022-09-23T21:18:44.577Z,16.13
2022-09-23T21:21:12.274Z,16.80
2022-09-23T21:23:40.092Z,16.80
2022-09-23T21:26:09.305Z,16.52
2022-09-23T21:28:41.173Z,14.98
2022-09-23T21:31:10.775Z,17.85
2022-09-23T21:33:37.715Z,16.13
2022-09-23T21:36:06.508Z,17.30
2022-09-23T21:38:37.097Z,17.25
2022-09-23T21:43:33.831Z,16.33
2022-09-23T21:46:05.926Z,15.57
2022-09-23T21:48:34.417Z,17.05
2022-09-23T21:51:03.849Z,17.52
2022-09-23T21:53:31.670Z,15.32
2022-09-23T21:56:15.712Z,16.92
2022-09-23T21:58:45.779Z,16.95
2022-09-23T22:01:13.917Z,17.50
2022-09-23T22:03:41.358Z,17.65
2022-09-23T22:06:11.173Z,16.35
2022-09-23T22:08:40.539Z,18.05
2022-09-23T22:11:30.032Z,19.00
2022-09-23T22:13:57.840Z,19.15
2022-09-23T22:16:24.606Z,18.92
2022-09-23T22:18:55.248Z,16.98
2022-09-23T22:23:54.100Z,18.13
2022-09-23T22:26:20.635Z,18.25
2022-09-23T22:29:05.721Z,19.48
2022-09-23T22:31:51.052Z,19.05
2022-09-23T22:34:47.537Z,17.92
2022-09-23T22:37:06.691Z,21.83
2022-09-23T22:39:33.454Z,20.50
2022-09-23T22:42:00.152Z,19.73
2022-09-23T22:44:26.807Z,19.33
2022-09-23T22:46:53.749Z,21.45
2022-09-23T22:49:20.422Z,19.52
2022-09-23T22:51:47.163Z,21.42
2022-09-23T22:54:13.785Z,22.65
2022-09-23T22:56:40.383Z,19.38
2022-09-23T22:59:08.759Z,21.60
2022-09-23T23:01:35.742Z,21.65
2022-09-23T23:04:02.467Z,21.67
2022-09-23T23:06:35.907Z,19.95
2022-09-23T23:09:19.014Z,20.55
2022-09-23T23:11:45.720Z,21.20
2022-09-23T23:14:14.268Z,21.15
2022-09-23T23:16:40.852Z,21.83
2022-09-23T23:19:09.974Z,20.90
2022-09-23T23:21:37.122Z,23.02
2022-09-23T23:24:04.858Z,22.83
2022-09-23T23:26:33.149Z,20.80
2022-09-23T23:29:00.737Z,20.40
2022-09-23T23:31:28.860Z,19.20
2022-09-23T23:33:55.398Z,19.75
2022-09-23T23:36:23.206Z,19.48
2022-09-23T23:38:54.206Z,18.42
2022-09-23T23:41:22.626Z,20.75
2022-09-23T23:43:55.348Z,16.85
2022-09-23T23:46:25.425Z,17.48
2022-09-23T23:48:53.303Z,18.83
2022-09-23T23:51:20.797Z,16.50
2022-09-23T23:53:48.257Z,18.70
2022-09-23T23:56:19.753Z,18.63
2022-09-23T23:58:46.556Z,16.63
